sensor_id;sensor_type;location;lat;lon;timestamp;temperature;humidity
11748;DHT22;5931;48.832;9.072;2023-08-06T00:02:23;13.60;99.90
11748;DHT22;5931;48.832;9.072;2023-08-06T00:04:49;13.60;99.90
11748;DHT22;5931;48.832;9.072;2023-08-06T00:07:15;13.70;99.90
11748;DHT22;5931;48.832;9.072;2023-08-06T00:09:40;13.60;99.90
11748;DHT22;5931;48.832;9.072;2023-08-06T00:12:06;13.60;99.90
11748;DHT22;5931;48.832;9.072;2023-08-06T00:14:32;13.60;99.90
11748;DHT22;5931;48.832;9.072;2023-08-06T00:16:58;13.50;99.90
11748;DHT22;5931;48.832;9.072;2023-08-06T00:19:23;13.40;99.90
11748;DHT22;5931;48.832;9.072;2023-08-06T00:21:49;13.30;99.90
11748;DHT22;5931;48.832;9.072;2023-08-06T00:24:14;13.30;99.90
11748;DHT22;5931;48.832;9.072;2023-08-06T00:26:40;13.20;99.90
11748;DHT22;5931;48.832;9.072;2023-08-06T00:29:06;13.10;99.90
11748;DHT22;5931;48.832;9.072;2023-08-06T00:31:32;13.20;99.90
11748;DHT22;5931;48.832;9.072;2023-08-06T00:33:57;13.20;99.90
11748;DHT22;5931;48.832;9.072;2023-08-06T00:36:23;13.30;99.90
11748;DHT22;5931;48.832;9.072;2023-08-06T00:38:48;13.20;99.90
11748;DHT22;5931;48.832;9.072;2023-08-06T00:41:14;13.20;99.90
11748;DHT22;5931;48.832;9.072;2023-08-06T00:43:40;13.10;99.90
11748;DHT22;5931;48.832;9.072;2023-08-06T00:46:06;13.10;99.90
11748;DHT22;5931;48.832;9.072;2023-08-06T00:48:32;13.10;99.90
11748;DHT22;5931;48.832;9.072;2023-08-06T00:50:58;13.10;99.90
11748;DHT22;5931;48.832;9.072;2023-08-06T00:53:24;13.00;99.90
11748;DHT22;5931;48.832;9.072;2023-08-06T00:55:50;12.90;99.90
11748;DHT22;5931;48.832;9.072;2023-08-06T00:58:16;12.80;99.90
11748;DHT22;5931;48.832;9.072;2023-08-06T01:00:42;12.90;99.90
11748;DHT22;5931;48.832;9.072;2023-08-06T01:03:08;12.80;99.90
11748;DHT22;5931;48.832;9.072;2023-08-06T01:05:34;12.80;99.90
11748;DHT22;5931;48.832;9.072;2023-08-06T01:13:47;12.80;99.90
11748;DHT22;5931;48.832;9.072;2023-08-06T01:16:21;12.80;99.90
11748;DHT22;5931;48.832;9.072;2023-08-06T01:18:48;12.70;99.90
11748;DHT22;5931;48.832;9.072;2023-08-06T01:21:18;12.60;99.90
11748;DHT22;5931;48.832;9.072;2023-08-06T01:23:45;12.60;99.90
11748;DHT22;5931;48.832;9.072;2023-08-06T01:26:33;12.70;99.90
11748;DHT22;5931;48.832;9.072;2023-08-06T01:29:10;12.80;99.90
11748;DHT22;5931;48.832;9.072;2023-08-06T01:31:39;12.70;99.90
11748;DHT22;5931;48.832;9.072;2023-08-06T01:34:10;12.60;99.90
11748;DHT22;5931;48.832;9.072;2023-08-06T01:36:38;12.50;99.90
11748;DHT22;5931;48.832;9.072;2023-08-06T01:39:05;12.50;99.90
11748;DHT22;5931;48.832;9.072;2023-08-06T01:41:30;12.50;99.90
11748;DHT22;5931;48.832;9.072;2023-08-06T01:43:56;12.60;99.90
11748;DHT22;5931;48.832;9.072;2023-08-06T01:46:22;12.60;99.90
11748;DHT22;5931;48.832;9.072;2023-08-06T01:48:48;12.70;99.90
11748;DHT22;5931;48.832;9.072;2023-08-06T01:51:13;12.70;99.90
11748;DHT22;5931;48.832;9.072;2023-08-06T01:53:39;12.70;99.90
11748;DHT22;5931;48.832;9.072;2023-08-06T01:56:05;12.70;99.90
11748;DHT22;5931;48.832;9.072;2023-08-06T01:58:30;12.80;99.90
11748;DHT22;5931;48.832;9.072;2023-08-06T02:00:56;12.80;99.90
11748;DHT22;5931;48.832;9.072;2023-08-06T02:03:23;12.80;99.90
11748;DHT22;5931;48.832;9.072;2023-08-06T02:05:49;12.80;99.90
11748;DHT22;5931;48.832;9.072;2023-08-06T02:08:14;12.80;99.90
11748;DHT22;5931;48.832;9.072;2023-08-06T02:10:40;12.80;99.90
11748;DHT22;5931;48.832;9.072;2023-08-06T02:13:07;12.80;99.90
11748;DHT22;5931;48.832;9.072;2023-08-06T02:15:32;12.80;99.90
11748;DHT22;5931;48.832;9.072;2023-08-06T02:17:58;12.70;99.90
11748;DHT22;5931;48.832;9.072;2023-08-06T02:20:24;12.60;99.90
11748;DHT22;5931;48.832;9.072;2023-08-06T02:22:49;12.60;99.90
11748;DHT22;5931;48.832;9.072;2023-08-06T02:25:15;12.60;99.90
11748;DHT22;5931;48.832;9.072;2023-08-06T02:27:42;12.60;99.90
11748;DHT22;5931;48.832;9.072;2023-08-06T02:30:08;12.70;99.90
11748;DHT22;5931;48.832;9.072;2023-08-06T02:32:33;12.80;99.90
11748;DHT22;5931;48.832;9.072;2023-08-06T02:35:01;12.80;99.90
11748;DHT22;5931;48.832;9.072;2023-08-06T02:37:27;12.80;99.90
11748;DHT22;5931;48.832;9.072;2023-08-06T02:39:53;12.80;99.90
11748;DHT22;5931;48.832;9.072;2023-08-06T02:42:18;12.80;99.90
11748;DHT22;5931;48.832;9.072;2023-08-06T02:44:45;12.70;99.90
11748;DHT22;5931;48.832;9.072;2023-08-06T02:47:10;12.70;99.90
11748;DHT22;5931;48.832;9.072;2023-08-06T02:49:36;12.60;99.90
11748;DHT22;5931;48.832;9.072;2023-08-06T02:52:03;12.50;99.90
11748;DHT22;5931;48.832;9.072;2023-08-06T02:54:28;12.60;99.90
11748;DHT22;5931;48.832;9.072;2023-08-06T02:56:54;12.50;99.90
11748;DHT22;5931;48.832;9.072;2023-08-06T02:59:25;12.50;99.90
11748;DHT22;5931;48.832;9.072;2023-08-06T03:02:05;12.50;99.90
11748;DHT22;5931;48.832;9.072;2023-08-06T03:04:46;12.40;99.90
11748;DHT22;5931;48.832;9.072;2023-08-06T03:07:12;12.40;99.90
11748;DHT22;5931;48.832;9.072;2023-08-06T03:09:46;12.40;99.90
11748;DHT22;5931;48.832;9.072;2023-08-06T03:12:13;12.60;99.90
11748;DHT22;5931;48.832;9.072;2023-08-06T03:14:38;12.70;99.90
11748;DHT22;5931;48.832;9.072;2023-08-06T03:17:06;12.80;99.90
11748;DHT22;5931;48.832;9.072;2023-08-06T03:19:32;12.90;99.90
11748;DHT22;5931;48.832;9.072;2023-08-06T03:21:58;13.00;99.90
11748;DHT22;5931;48.832;9.072;2023-08-06T03:24:24;13.10;99.90
11748;DHT22;5931;48.832;9.072;2023-08-06T03:26:50;13.10;99.90
11748;DHT22;5931;48.832;9.072;2023-08-06T03:29:16;13.10;99.90
11748;DHT22;5931;48.832;9.072;2023-08-06T03:31:42;13.10;99.90
11748;DHT22;5931;48.832;9.072;2023-08-06T03:34:11;13.00;99.90
11748;DHT22;5931;48.832;9.072;2023-08-06T03:36:37;13.00;99.90
11748;DHT22;5931;48.832;9.072;2023-08-06T03:39:03;12.90;99.90
11748;DHT22;5931;48.832;9.072;2023-08-06T03:41:30;12.90;99.90
11748;DHT22;5931;48.832;9.072;2023-08-06T03:43:56;12.90;99.90
11748;DHT22;5931;48.832;9.072;2023-08-06T03:46:25;12.90;99.90
11748;DHT22;5931;48.832;9.072;2023-08-06T03:48:51;12.90;99.90
11748;DHT22;5931;48.832;9.072;2023-08-06T03:51:16;12.90;99.90
11748;DHT22;5931;48.832;9.072;2023-08-06T03:53:44;13.00;99.90
11748;DHT22;5931;48.832;9.072;2023-08-06T03:56:10;13.00;99.90
11748;DHT22;5931;48.832;9.072;2023-08-06T03:58:36;13.00;99.90
11748;DHT22;5931;48.832;9.072;2023-08-06T04:01:02;13.00;99.90
11748;DHT22;5931;48.832;9.072;2023-08-06T04:03:34;13.00;99.90
11748;DHT22;5931;48.832;9.072;2023-08-06T04:06:04;13.10;99.90
11748;DHT22;5931;48.832;9.072;2023-08-06T04:08:30;13.10;99.90
11748;DHT22;5931;48.832;9.072;2023-08-06T04:10:56;13.10;99.90
11748;DHT22;5931;48.832;9.072;2023-08-06T04:13:21;13.10;99.90
11748;DHT22;5931;48.832;9.072;2023-08-06T04:15:47;13.10;99.90
11748;DHT22;5931;48.832;9.072;2023-08-06T04:18:13;13.10;99.90
11748;DHT22;5931;48.832;9.072;2023-08-06T04:20:48;13.10;99.90
11748;DHT22;5931;48.832;9.072;2023-08-06T04:23:15;13.10;99.90
11748;DHT22;5931;48.832;9.072;2023-08-06T04:25:41;13.10;99.90
11748;DHT22;5931;48.832;9.072;2023-08-06T04:28:07;13.10;99.90
11748;DHT22;5931;48.832;9.072;2023-08-06T04:30:33;13.10;99.90
11748;DHT22;5931;48.832;9.072;2023-08-06T04:32:59;13.10;99.90
11748;DHT22;5931;48.832;9.072;2023-08-06T04:35:26;13.20;99.90
11748;DHT22;5931;48.832;9.072;2023-08-06T04:37:52;13.30;99.90
11748;DHT22;5931;48.832;9.072;2023-08-06T04:40:17;13.20;99.90
11748;DHT22;5931;48.832;9.072;2023-08-06T04:42:43;13.20;99.90
11748;DHT22;5931;48.832;9.072;2023-08-06T04:45:09;13.20;99.90
11748;DHT22;5931;48.832;9.072;2023-08-06T04:47:35;13.10;99.90
11748;DHT22;5931;48.832;9.072;2023-08-06T04:50:00;13.00;99.90
11748;DHT22;5931;48.832;9.072;2023-08-06T04:52:26;13.00;99.90
11748;DHT22;5931;48.832;9.072;2023-08-06T04:54:54;12.90;99.90
11748;DHT22;5931;48.832;9.072;2023-08-06T04:57:20;12.90;99.90
11748;DHT22;5931;48.832;9.072;2023-08-06T04:59:46;12.80;99.90
11748;DHT22;5931;48.832;9.072;2023-08-06T05:02:12;12.80;99.90
11748;DHT22;5931;48.832;9.072;2023-08-06T05:04:38;12.80;99.90
11748;DHT22;5931;48.832;9.072;2023-08-06T05:07:05;12.70;99.90
11748;DHT22;5931;48.832;9.072;2023-08-06T05:09:31;12.70;99.90
11748;DHT22;5931;48.832;9.072;2023-08-06T05:11:56;12.70;99.90
11748;DHT22;5931;48.832;9.072;2023-08-06T05:14:22;12.70;99.90
11748;DHT22;5931;48.832;9.072;2023-08-06T05:16:47;12.80;99.90
11748;DHT22;5931;48.832;9.072;2023-08-06T05:19:13;13.00;99.90
11748;DHT22;5931;48.832;9.072;2023-08-06T05:21:39;13.20;99.90
11748;DHT22;5931;48.832;9.072;2023-08-06T05:24:04;13.40;99.90
11748;DHT22;5931;48.832;9.072;2023-08-06T05:26:30;13.60;99.90
11748;DHT22;5931;48.832;9.072;2023-08-06T05:28:56;13.90;99.90
11748;DHT22;5931;48.832;9.072;2023-08-06T05:31:21;14.10;99.90
11748;DHT22;5931;48.832;9.072;2023-08-06T05:33:47;14.20;99.90
11748;DHT22;5931;48.832;9.072;2023-08-06T05:36:12;14.20;99.90
11748;DHT22;5931;48.832;9.072;2023-08-06T05:38:38;14.30;99.90
11748;DHT22;5931;48.832;9.072;2023-08-06T05:41:04;14.30;99.90
11748;DHT22;5931;48.832;9.072;2023-08-06T05:43:30;14.30;99.90
11748;DHT22;5931;48.832;9.072;2023-08-06T05:45:56;14.30;99.90
11748;DHT22;5931;48.832;9.072;2023-08-06T05:48:22;14.30;99.90
11748;DHT22;5931;48.832;9.072;2023-08-06T05:50:50;14.30;99.90
11748;DHT22;5931;48.832;9.072;2023-08-06T05:53:16;14.30;99.90
11748;DHT22;5931;48.832;9.072;2023-08-06T05:55:41;14.30;99.90
11748;DHT22;5931;48.832;9.072;2023-08-06T05:58:07;14.20;99.90
11748;DHT22;5931;48.832;9.072;2023-08-06T06:00:33;14.20;99.90
11748;DHT22;5931;48.832;9.072;2023-08-06T06:03:00;14.20;99.90
11748;DHT22;5931;48.832;9.072;2023-08-06T06:05:26;14.10;99.90
11748;DHT22;5931;48.832;9.072;2023-08-06T06:07:51;14.10;99.90
11748;DHT22;5931;48.832;9.072;2023-08-06T06:10:17;14.10;99.90
11748;DHT22;5931;48.832;9.072;2023-08-06T06:12:42;14.10;99.90
11748;DHT22;5931;48.832;9.072;2023-08-06T06:15:08;14.10;99.90
11748;DHT22;5931;48.832;9.072;2023-08-06T06:17:34;14.00;99.90
11748;DHT22;5931;48.832;9.072;2023-08-06T06:20:00;14.00;99.90
11748;DHT22;5931;48.832;9.072;2023-08-06T06:22:25;14.00;99.90
11748;DHT22;5931;48.832;9.072;2023-08-06T06:24:51;14.00;99.90
11748;DHT22;5931;48.832;9.072;2023-08-06T06:27:17;14.00;99.90
11748;DHT22;5931;48.832;9.072;2023-08-06T06:29:42;14.00;99.90
11748;DHT22;5931;48.832;9.072;2023-08-06T06:32:08;13.90;99.90
11748;DHT22;5931;48.832;9.072;2023-08-06T06:34:34;14.00;99.90
11748;DHT22;5931;48.832;9.072;2023-08-06T06:36:59;14.00;99.90
11748;DHT22;5931;48.832;9.072;2023-08-06T06:39:25;14.10;99.90
11748;DHT22;5931;48.832;9.072;2023-08-06T06:41:50;14.20;99.90
11748;DHT22;5931;48.832;9.072;2023-08-06T06:44:24;14.40;99.90
11748;DHT22;5931;48.832;9.072;2023-08-06T06:46:49;14.30;99.90
11748;DHT22;5931;48.832;9.072;2023-08-06T06:49:15;14.30;99.90
11748;DHT22;5931;48.832;9.072;2023-08-06T06:51:41;14.30;99.90
11748;DHT22;5931;48.832;9.072;2023-08-06T06:54:06;14.20;99.90
11748;DHT22;5931;48.832;9.072;2023-08-06T06:56:32;14.30;99.90
11748;DHT22;5931;48.832;9.072;2023-08-06T06:58:57;14.30;99.90
11748;DHT22;5931;48.832;9.072;2023-08-06T07:01:23;14.40;99.90
11748;DHT22;5931;48.832;9.072;2023-08-06T07:03:49;14.40;99.90
11748;DHT22;5931;48.832;9.072;2023-08-06T07:06:14;14.40;99.90
11748;DHT22;5931;48.832;9.072;2023-08-06T07:08:41;14.50;99.90
11748;DHT22;5931;48.832;9.072;2023-08-06T07:11:07;14.50;99.90
11748;DHT22;5931;48.832;9.072;2023-08-06T07:13:33;14.60;99.90
11748;DHT22;5931;48.832;9.072;2023-08-06T07:15:59;14.70;99.90
11748;DHT22;5931;48.832;9.072;2023-08-06T07:18:25;14.70;99.90
11748;DHT22;5931;48.832;9.072;2023-08-06T07:20:54;14.60;99.90
11748;DHT22;5931;48.832;9.072;2023-08-06T07:23:21;14.50;99.90
11748;DHT22;5931;48.832;9.072;2023-08-06T07:25:48;14.40;99.90
11748;DHT22;5931;48.832;9.072;2023-08-06T07:28:14;14.40;99.90
11748;DHT22;5931;48.832;9.072;2023-08-06T07:30:40;14.50;99.90
11748;DHT22;5931;48.832;9.072;2023-08-06T07:33:06;14.60;99.90
11748;DHT22;5931;48.832;9.072;2023-08-06T07:35:32;14.70;99.90
11748;DHT22;5931;48.832;9.072;2023-08-06T07:37:58;14.90;99.90
11748;DHT22;5931;48.832;9.072;2023-08-06T07:40:24;15.00;99.90
11748;DHT22;5931;48.832;9.072;2023-08-06T07:42:49;15.00;99.90
11748;DHT22;5931;48.832;9.072;2023-08-06T07:45:15;15.00;99.90
11748;DHT22;5931;48.832;9.072;2023-08-06T07:47:41;15.00;99.90
11748;DHT22;5931;48.832;9.072;2023-08-06T07:50:08;14.90;99.90
11748;DHT22;5931;48.832;9.072;2023-08-06T07:52:34;14.90;99.90
11748;DHT22;5931;48.832;9.072;2023-08-06T07:55:00;14.90;99.90
11748;DHT22;5931;48.832;9.072;2023-08-06T07:57:33;15.00;99.90
11748;DHT22;5931;48.832;9.072;2023-08-06T08:00:00;15.20;99.90
11748;DHT22;5931;48.832;9.072;2023-08-06T08:02:27;15.50;99.90
11748;DHT22;5931;48.832;9.072;2023-08-06T08:04:53;15.90;99.90
11748;DHT22;5931;48.832;9.072;2023-08-06T08:07:18;16.20;99.90
11748;DHT22;5931;48.832;9.072;2023-08-06T08:09:44;16.50;99.90
11748;DHT22;5931;48.832;9.072;2023-08-06T08:12:10;16.60;99.90
11748;DHT22;5931;48.832;9.072;2023-08-06T08:14:35;16.70;99.90
11748;DHT22;5931;48.832;9.072;2023-08-06T08:17:05;16.80;99.90
11748;DHT22;5931;48.832;9.072;2023-08-06T08:19:32;16.80;99.90
11748;DHT22;5931;48.832;9.072;2023-08-06T08:21:57;17.00;99.90
11748;DHT22;5931;48.832;9.072;2023-08-06T08:24:23;17.20;99.90
11748;DHT22;5931;48.832;9.072;2023-08-06T08:26:50;17.40;99.90
11748;DHT22;5931;48.832;9.072;2023-08-06T08:29:16;17.80;99.90
11748;DHT22;5931;48.832;9.072;2023-08-06T08:31:41;18.10;99.90
11748;DHT22;5931;48.832;9.072;2023-08-06T08:34:08;18.10;99.90
11748;DHT22;5931;48.832;9.072;2023-08-06T08:36:34;18.20;99.90
11748;DHT22;5931;48.832;9.072;2023-08-06T08:39:00;18.20;99.90
11748;DHT22;5931;48.832;9.072;2023-08-06T08:41:31;18.10;99.90
11748;DHT22;5931;48.832;9.072;2023-08-06T08:43:58;18.20;99.90
11748;DHT22;5931;48.832;9.072;2023-08-06T08:46:29;18.40;99.90
11748;DHT22;5931;48.832;9.072;2023-08-06T08:48:57;18.60;99.90
11748;DHT22;5931;48.832;9.072;2023-08-06T08:51:24;18.30;99.90
11748;DHT22;5931;48.832;9.072;2023-08-06T08:53:53;18.00;99.90
11748;DHT22;5931;48.832;9.072;2023-08-06T08:56:21;17.50;99.90
11748;DHT22;5931;48.832;9.072;2023-08-06T08:58:46;17.10;99.90
11748;DHT22;5931;48.832;9.072;2023-08-06T09:01:12;16.80;99.90
11748;DHT22;5931;48.832;9.072;2023-08-06T09:03:39;16.50;99.90
11748;DHT22;5931;48.832;9.072;2023-08-06T09:06:04;16.20;99.90
11748;DHT22;5931;48.832;9.072;2023-08-06T09:08:36;16.10;99.90
11748;DHT22;5931;48.832;9.072;2023-08-06T09:11:04;16.10;99.90
11748;DHT22;5931;48.832;9.072;2023-08-06T09:13:30;16.20;99.90
11748;DHT22;5931;48.832;9.072;2023-08-06T09:15:56;16.40;99.90
11748;DHT22;5931;48.832;9.072;2023-08-06T09:18:26;16.50;99.90
11748;DHT22;5931;48.832;9.072;2023-08-06T09:20:53;16.50;99.90
11748;DHT22;5931;48.832;9.072;2023-08-06T09:23:18;16.50;99.90
11748;DHT22;5931;48.832;9.072;2023-08-06T09:25:47;16.80;99.90
11748;DHT22;5931;48.832;9.072;2023-08-06T09:28:12;17.10;99.90
11748;DHT22;5931;48.832;9.072;2023-08-06T09:30:38;17.10;99.90
11748;DHT22;5931;48.832;9.072;2023-08-06T09:33:08;17.10;99.90
11748;DHT22;5931;48.832;9.072;2023-08-06T09:35:39;17.00;99.90
11748;DHT22;5931;48.832;9.072;2023-08-06T09:38:06;17.00;99.90
11748;DHT22;5931;48.832;9.072;2023-08-06T09:40:36;16.90;99.90
11748;DHT22;5931;48.832;9.072;2023-08-06T09:43:02;17.10;99.90
11748;DHT22;5931;48.832;9.072;2023-08-06T09:45:40;17.10;99.90
11748;DHT22;5931;48.832;9.072;2023-08-06T09:48:08;17.10;99.90
11748;DHT22;5931;48.832;9.072;2023-08-06T09:50:36;17.10;99.90
11748;DHT22;5931;48.832;9.072;2023-08-06T09:53:06;16.90;99.90
11748;DHT22;5931;48.832;9.072;2023-08-06T09:55:33;16.90;99.90
11748;DHT22;5931;48.832;9.072;2023-08-06T09:58:00;17.00;99.90
11748;DHT22;5931;48.832;9.072;2023-08-06T10:00:26;16.90;99.90
11748;DHT22;5931;48.832;9.072;2023-08-06T10:02:54;16.90;99.90
11748;DHT22;5931;48.832;9.072;2023-08-06T10:05:24;16.70;99.90
11748;DHT22;5931;48.832;9.072;2023-08-06T10:07:50;16.80;99.90
11748;DHT22;5931;48.832;9.072;2023-08-06T10:10:16;17.20;99.90
11748;DHT22;5931;48.832;9.072;2023-08-06T10:12:48;17.50;99.90
11748;DHT22;5931;48.832;9.072;2023-08-06T10:15:17;17.60;99.90
11748;DHT22;5931;48.832;9.072;2023-08-06T10:17:47;17.80;99.90
11748;DHT22;5931;48.832;9.072;2023-08-06T10:20:13;17.60;99.90
11748;DHT22;5931;48.832;9.072;2023-08-06T10:22:46;17.70;99.90
11748;DHT22;5931;48.832;9.072;2023-08-06T10:25:16;17.80;99.90
11748;DHT22;5931;48.832;9.072;2023-08-06T10:30:30;18.10;99.90
11748;DHT22;5931;48.832;9.072;2023-08-06T10:32:58;18.30;99.90
11748;DHT22;5931;48.832;9.072;2023-08-06T10:35:45;18.30;99.90
11748;DHT22;5931;48.832;9.072;2023-08-06T10:38:19;18.30;99.90
11748;DHT22;5931;48.832;9.072;2023-08-06T10:43:33;18.50;99.90
11748;DHT22;5931;48.832;9.072;2023-08-06T10:46:03;18.70;99.90
11748;DHT22;5931;48.832;9.072;2023-08-06T10:48:41;18.80;99.90
11748;DHT22;5931;48.832;9.072;2023-08-06T10:51:09;18.60;99.90
11748;DHT22;5931;48.832;9.072;2023-08-06T10:53:35;18.30;99.90
11748;DHT22;5931;48.832;9.072;2023-08-06T10:56:01;17.90;99.90
11748;DHT22;5931;48.832;9.072;2023-08-06T10:58:33;17.80;99.90
11748;DHT22;5931;48.832;9.072;2023-08-06T11:00:59;17.30;99.90
11748;DHT22;5931;48.832;9.072;2023-08-06T11:03:27;16.90;99.90
11748;DHT22;5931;48.832;9.072;2023-08-06T11:05:53;16.60;99.90
11748;DHT22;5931;48.832;9.072;2023-08-06T11:08:28;16.60;99.90
11748;DHT22;5931;48.832;9.072;2023-08-06T11:10:54;16.90;99.90
11748;DHT22;5931;48.832;9.072;2023-08-06T11:13:21;17.10;99.90
11748;DHT22;5931;48.832;9.072;2023-08-06T11:15:46;17.00;99.90
11748;DHT22;5931;48.832;9.072;2023-08-06T11:18:12;16.80;99.90
11748;DHT22;5931;48.832;9.072;2023-08-06T11:20:39;16.80;99.90
11748;DHT22;5931;48.832;9.072;2023-08-06T11:23:05;16.80;99.90
11748;DHT22;5931;48.832;9.072;2023-08-06T11:25:36;17.00;99.90
11748;DHT22;5931;48.832;9.072;2023-08-06T11:28:01;17.10;99.90
11748;DHT22;5931;48.832;9.072;2023-08-06T11:30:27;17.10;99.90
11748;DHT22;5931;48.832;9.072;2023-08-06T11:32:52;17.20;99.90
11748;DHT22;5931;48.832;9.072;2023-08-06T11:35:18;17.10;99.90
11748;DHT22;5931;48.832;9.072;2023-08-06T11:37:45;17.00;99.90
11748;DHT22;5931;48.832;9.072;2023-08-06T11:40:15;17.00;99.90
11748;DHT22;5931;48.832;9.072;2023-08-06T11:42:41;16.60;99.90
11748;DHT22;5931;48.832;9.072;2023-08-06T11:45:08;16.20;99.90
11748;DHT22;5931;48.832;9.072;2023-08-06T11:47:38;16.00;99.90
11748;DHT22;5931;48.832;9.072;2023-08-06T11:50:06;15.80;99.90
11748;DHT22;5931;48.832;9.072;2023-08-06T11:52:32;15.70;99.90
11748;DHT22;5931;48.832;9.072;2023-08-06T11:55:05;15.70;99.90
11748;DHT22;5931;48.832;9.072;2023-08-06T11:57:33;15.60;99.90
11748;DHT22;5931;48.832;9.072;2023-08-06T12:00:08;15.60;99.90
11748;DHT22;5931;48.832;9.072;2023-08-06T12:02:44;15.50;99.90
11748;DHT22;5931;48.832;9.072;2023-08-06T12:05:17;15.30;99.90
11748;DHT22;5931;48.832;9.072;2023-08-06T12:07:48;15.10;99.90
11748;DHT22;5931;48.832;9.072;2023-08-06T12:10:14;15.00;99.90
11748;DHT22;5931;48.832;9.072;2023-08-06T12:12:41;14.90;99.90
11748;DHT22;5931;48.832;9.072;2023-08-06T12:15:08;15.00;99.90
11748;DHT22;5931;48.832;9.072;2023-08-06T12:17:34;15.10;99.90
11748;DHT22;5931;48.832;9.072;2023-08-06T12:20:00;15.20;99.90
11748;DHT22;5931;48.832;9.072;2023-08-06T12:22:26;15.50;99.90
11748;DHT22;5931;48.832;9.072;2023-08-06T12:24:52;15.70;99.90
11748;DHT22;5931;48.832;9.072;2023-08-06T12:27:21;15.70;99.90
11748;DHT22;5931;48.832;9.072;2023-08-06T12:29:47;15.90;99.90
11748;DHT22;5931;48.832;9.072;2023-08-06T12:32:14;16.10;99.90
11748;DHT22;5931;48.832;9.072;2023-08-06T12:34:41;16.10;99.90
11748;DHT22;5931;48.832;9.072;2023-08-06T12:37:07;16.40;99.90
11748;DHT22;5931;48.832;9.072;2023-08-06T12:39:34;16.80;99.90
11748;DHT22;5931;48.832;9.072;2023-08-06T12:42:01;17.30;99.90
11748;DHT22;5931;48.832;9.072;2023-08-06T12:44:27;17.70;99.90
11748;DHT22;5931;48.832;9.072;2023-08-06T12:46:54;17.90;99.90
11748;DHT22;5931;48.832;9.072;2023-08-06T12:49:20;17.80;99.90
11748;DHT22;5931;48.832;9.072;2023-08-06T12:51:50;18.00;99.90
11748;DHT22;5931;48.832;9.072;2023-08-06T12:54:19;18.10;99.90
11748;DHT22;5931;48.832;9.072;2023-08-06T12:56:46;18.30;99.90
11748;DHT22;5931;48.832;9.072;2023-08-06T12:59:15;18.60;99.90
11748;DHT22;5931;48.832;9.072;2023-08-06T13:01:42;18.50;99.90
11748;DHT22;5931;48.832;9.072;2023-08-06T13:04:08;18.20;99.90
11748;DHT22;5931;48.832;9.072;2023-08-06T13:06:34;18.20;99.90
11748;DHT22;5931;48.832;9.072;2023-08-06T13:09:03;18.10;99.90
11748;DHT22;5931;48.832;9.072;2023-08-06T13:11:30;18.10;99.90
11748;DHT22;5931;48.832;9.072;2023-08-06T13:14:03;18.40;99.90
11748;DHT22;5931;48.832;9.072;2023-08-06T13:16:29;18.40;99.90
11748;DHT22;5931;48.832;9.072;2023-08-06T13:18:54;18.20;99.90
11748;DHT22;5931;48.832;9.072;2023-08-06T13:21:20;17.90;99.90
11748;DHT22;5931;48.832;9.072;2023-08-06T13:23:45;17.90;99.90
11748;DHT22;5931;48.832;9.072;2023-08-06T13:26:11;18.10;99.90
11748;DHT22;5931;48.832;9.072;2023-08-06T13:28:37;18.10;99.90
11748;DHT22;5931;48.832;9.072;2023-08-06T13:31:02;17.90;99.90
11748;DHT22;5931;48.832;9.072;2023-08-06T13:33:28;18.30;99.90
11748;DHT22;5931;48.832;9.072;2023-08-06T13:35:53;18.30;99.90
11748;DHT22;5931;48.832;9.072;2023-08-06T13:38:19;18.00;99.90
11748;DHT22;5931;48.832;9.072;2023-08-06T13:40:45;17.90;99.90
11748;DHT22;5931;48.832;9.072;2023-08-06T13:43:12;17.80;99.90
11748;DHT22;5931;48.832;9.072;2023-08-06T13:45:37;17.70;99.90
11748;DHT22;5931;48.832;9.072;2023-08-06T13:48:03;17.50;99.90
11748;DHT22;5931;48.832;9.072;2023-08-06T13:50:29;17.30;99.90
11748;DHT22;5931;48.832;9.072;2023-08-06T13:52:55;17.40;99.90
11748;DHT22;5931;48.832;9.072;2023-08-06T13:55:21;17.40;99.90
11748;DHT22;5931;48.832;9.072;2023-08-06T13:57:48;17.30;99.90
11748;DHT22;5931;48.832;9.072;2023-08-06T14:00:13;17.00;99.90
11748;DHT22;5931;48.832;9.072;2023-08-06T14:02:39;16.80;99.90
11748;DHT22;5931;48.832;9.072;2023-08-06T14:05:05;16.60;99.90
11748;DHT22;5931;48.832;9.072;2023-08-06T14:07:31;16.40;99.90
11748;DHT22;5931;48.832;9.072;2023-08-06T14:09:56;16.10;99.90
11748;DHT22;5931;48.832;9.072;2023-08-06T14:12:24;15.90;99.90
11748;DHT22;5931;48.832;9.072;2023-08-06T14:14:49;16.00;99.90
11748;DHT22;5931;48.832;9.072;2023-08-06T14:17:15;16.20;99.90
11748;DHT22;5931;48.832;9.072;2023-08-06T14:19:41;16.40;99.90
11748;DHT22;5931;48.832;9.072;2023-08-06T14:22:07;16.70;99.90
11748;DHT22;5931;48.832;9.072;2023-08-06T14:24:32;16.80;99.90
11748;DHT22;5931;48.832;9.072;2023-08-06T14:26:58;16.90;99.90
11748;DHT22;5931;48.832;9.072;2023-08-06T14:29:23;16.90;99.90
11748;DHT22;5931;48.832;9.072;2023-08-06T14:31:50;17.20;99.90
11748;DHT22;5931;48.832;9.072;2023-08-06T14:34:16;17.40;99.90
11748;DHT22;5931;48.832;9.072;2023-08-06T14:36:42;17.60;99.90
11748;DHT22;5931;48.832;9.072;2023-08-06T14:39:08;17.70;99.90
11748;DHT22;5931;48.832;9.072;2023-08-06T14:41:33;17.60;99.90
11748;DHT22;5931;48.832;9.072;2023-08-06T14:43:59;17.30;99.90
11748;DHT22;5931;48.832;9.072;2023-08-06T14:46:25;17.10;99.90
11748;DHT22;5931;48.832;9.072;2023-08-06T14:48:50;16.50;99.90
11748;DHT22;5931;48.832;9.072;2023-08-06T14:51:16;16.30;99.90
11748;DHT22;5931;48.832;9.072;2023-08-06T14:53:44;16.50;99.90
11748;DHT22;5931;48.832;9.072;2023-08-06T14:56:10;16.80;99.90
11748;DHT22;5931;48.832;9.072;2023-08-06T14:58:36;16.80;99.90
11748;DHT22;5931;48.832;9.072;2023-08-06T15:01:01;16.80;99.90
11748;DHT22;5931;48.832;9.072;2023-08-06T15:03:27;16.50;99.90
11748;DHT22;5931;48.832;9.072;2023-08-06T15:05:53;16.40;99.90
11748;DHT22;5931;48.832;9.072;2023-08-06T15:08:19;16.50;99.90
11748;DHT22;5931;48.832;9.072;2023-08-06T15:10:52;17.10;99.90
11748;DHT22;5931;48.832;9.072;2023-08-06T15:13:18;17.20;99.90
11748;DHT22;5931;48.832;9.072;2023-08-06T15:15:49;17.50;99.90
11748;DHT22;5931;48.832;9.072;2023-08-06T15:18:15;17.90;99.90
11748;DHT22;5931;48.832;9.072;2023-08-06T15:20:41;17.70;99.90
11748;DHT22;5931;48.832;9.072;2023-08-06T15:23:06;17.40;99.90
11748;DHT22;5931;48.832;9.072;2023-08-06T15:25:32;17.50;99.90
11748;DHT22;5931;48.832;9.072;2023-08-06T15:27:58;17.80;99.90
11748;DHT22;5931;48.832;9.072;2023-08-06T15:30:23;17.90;99.90
11748;DHT22;5931;48.832;9.072;2023-08-06T15:32:49;18.10;99.90
11748;DHT22;5931;48.832;9.072;2023-08-06T15:35:15;18.10;99.90
11748;DHT22;5931;48.832;9.072;2023-08-06T15:37:40;17.90;99.90
11748;DHT22;5931;48.832;9.072;2023-08-06T15:40:07;18.10;99.90
11748;DHT22;5931;48.832;9.072;2023-08-06T15:42:33;18.40;99.90
11748;DHT22;5931;48.832;9.072;2023-08-06T15:44:59;18.50;99.90
11748;DHT22;5931;48.832;9.072;2023-08-06T15:47:25;18.70;99.90
11748;DHT22;5931;48.832;9.072;2023-08-06T15:49:50;18.80;99.90
11748;DHT22;5931;48.832;9.072;2023-08-06T15:52:16;18.90;99.90
11748;DHT22;5931;48.832;9.072;2023-08-06T15:54:43;18.90;99.90